St Amand (59) - D

Date : 02/03/2019
Distance : 3,500 km

Place Nom Licence Catégorie Club Temps min/km CN à J-60 Points Différence Nouveau CN
1 POULAIN Joel 1947 H60 5909HF 0:31:48 9'05 6105 6268 +163 6197
2 CASTIER Philippe 12963 H60 6208HF 0:37:18 10'39 5152 5344 +192 5196
3 PATURET Bertrand 2878 H70 6009HF 0:48:02 13'43 4133 4150 +17 4243
4 BOULANGER Patrick 8947 H60 5907HF 0:50:01 14'17 4371 3985 -386 4330
5 GRENOUILLAT J-Louis 13088 H60 5907HF 0:50:23 14'23 3711 3956 +245 3833
6 ROUX Catherine 13270 D50 6205HF 0:51:04 14'35 4226 3903 -323 4201
7 VERCAUTEREN M-Claude 16229 D45 6008HF 0:51:20 14'40 4541 3883 -658 4471
8 LEROY Odile 7216 D55 5907HF 0:51:51 14'48 2195 3844 +1649 3191
9 EJSMONT Jean 5597 H70 6203HF 0:54:23 15'32 0 3665 2917
10 CORDEIRO MENDES Myriam 9235 D55 6008HF 0:58:08 16'36 3884 3429 -455 3884
11 NOEL Annie 23019 D45 6205HF 0:58:18 16'39 3542 3419 -123 3582
12 TORZ Didier 9164 H60 5906HF 1:01:44 17'38 3195 3229 +34 3206
13 LOTERIE Murielle 7044 D50 5907HF 1:02:00 17'42 3659 3215 -444 3620
14 BOULANGER Isabelle 10639 D60 5907HF 1:03:15 18'04 3597 3151 -446 3695
15 GOURLAIN Marguerite-marie 19155 D45 6205HF 1:03:31 18'08 3117 3138 +21 3085
16 HUMBERTCLAUDE J-Paul 16205 H70 5909HF 1:05:42 18'46 4120 3034 -1086 3981
17 RICHARD Nicole 14245 D70 0207HF 1:09:43 19'55 3349 2859 -490 3264
18 JACQUEMART Marina 28528 D21 5909HF 1:22:19 23'31 2697 2421 -276 2264
19 TORZ-DRUON Magali 10081 D65 5906HF 1:25:29 24'25 2782 2332 -450 2689
20 SOLTYSIAK Séverine 30320 D45 5906HF 1:36:46 27'38 2576 2060 -516 2369
21 GAILLARD Gilles 36601 H65 6099HF 1:45:11 30'03 2223 1895 -328 2154
22 DELANNOY Aurore 21271 D45 6208HF 1:50:00 31'25 1836 1812 -24 1510
23 BEN KHALED Isabelle 13761 D60 5906HF 2:07:04 36'18 2412 1569 -843 2358
24 LUDEWIG-JAMES Carol 15894 D80 5907HF 2:36:04 44'35 1636 1277 -359 1636